Time;durP1;ratioP1;P1;durP2;ratioP2;P2;SDS_P1;SDS_P2;PMS_P1;PMS_P2;Temp;Humidity;BMP_temperature;BMP_pressure;BME280_temperature;BME280_humidity;BME280_pressure;Samples;Min_cycle;Max_cycle;Signal;HPM_P1;HPM_P2
2021/08/05 00:02:23;;;;;;;10.55;8.30;;;;;;;;;;5015808;28;20025;-78
2021/08/05 00:04:49;;;;;;;8.70;7.78;;;;;;;;;;5030656;28;20033;-79
2021/08/05 00:07:14;;;;;;;9.98;8.43;;;;;;;;;;5012283;28;20033;-78
2021/08/05 00:09:43;;;;;;;9.25;8.20;;;;;;;;;;5012741;28;20087;-78
2021/08/05 00:12:09;;;;;;;9.30;7.78;;;;;;;;;;5022960;28;20044;-78
2021/08/05 00:14:35;;;;;;;9.32;8.23;;;;;;;;;;5031356;28;20030;-78
2021/08/05 00:17:00;;;;;;;8.98;8.07;;;;;;;;;;5026861;28;20047;-78
2021/08/05 00:19:25;;;;;;;9.07;8.15;;;;;;;;;;5023512;28;20091;-78
2021/08/05 00:21:51;;;;;;;10.52;8.55;;;;;;;;;;5029112;28;20022;-78
2021/08/05 00:24:16;;;;;;;9.05;8.13;;;;;;;;;;5031470;28;20059;-78
2021/08/05 00:26:42;;;;;;;9.48;8.05;;;;;;;;;;5029775;28;20033;-78
2021/08/05 00:29:07;;;;;;;11.45;9.13;;;;;;;;;;5028116;28;20033;-78
2021/08/05 00:31:32;;;;;;;12.38;8.48;;;;;;;;;;5026863;28;20036;-78
2021/08/05 00:33:59;;;;;;;10.23;9.00;;;;;;;;;;5010242;28;20037;-78
2021/08/05 00:36:25;;;;;;;9.85;8.90;;;;;;;;;;5026628;28;20064;-78
2021/08/05 00:38:50;;;;;;;10.05;8.90;;;;;;;;;;5026598;28;20034;-78
2021/08/05 00:41:16;;;;;;;10.80;9.70;;;;;;;;;;5031922;28;20018;-78
2021/08/05 00:43:41;;;;;;;11.40;10.20;;;;;;;;;;5030408;28;20427;-78
2021/08/05 00:46:06;;;;;;;11.00;9.90;;;;;;;;;;5025880;28;20033;-78
2021/08/05 00:48:32;;;;;;;11.98;10.77;;;;;;;;;;5006436;28;20042;-78
2021/08/05 00:50:58;;;;;;;12.02;10.50;;;;;;;;;;5028507;28;20448;-77
2021/08/05 00:53:25;;;;;;;11.73;10.63;;;;;;;;;;5027642;28;20026;-78
2021/08/05 00:55:51;;;;;;;12.15;10.95;;;;;;;;;;5027466;28;20042;-78
2021/08/05 00:58:16;;;;;;;11.95;10.75;;;;;;;;;;5028166;28;20051;-78
2021/08/05 01:00:46;;;;;;;13.50;11.32;;;;;;;;;;5029081;28;20033;-78
2021/08/05 01:03:31;;;;;;;14.02;12.63;;;;;;;;;;5026108;28;20029;-78
2021/08/05 01:06:21;;;;;;;13.02;11.73;;;;;;;;;;5028725;28;20499;-78
2021/08/05 01:08:57;;;;;;;13.98;11.75;;;;;;;;;;5022510;28;20168;-78
2021/08/05 01:11:27;;;;;;;13.73;12.35;;;;;;;;;;5025791;28;20029;-78
2021/08/05 01:13:55;;;;;;;13.00;11.70;;;;;;;;;;5026987;28;20075;-78
2021/08/05 01:16:29;;;;;;;13.07;11.77;;;;;;;;;;5029808;28;20115;-78
2021/08/05 01:19:01;;;;;;;13.98;12.55;;;;;;;;;;5023301;28;20025;-78
2021/08/05 01:22:08;;;;;;;13.80;12.43;;;;;;;;;;5031816;28;20018;-78
2021/08/05 01:24:36;;;;;;;13.88;12.48;;;;;;;;;;5013492;28;20339;-78
2021/08/05 01:27:03;;;;;;;13.50;12.20;;;;;;;;;;5026987;28;20167;-78
2021/08/05 01:29:33;;;;;;;13.27;11.95;;;;;;;;;;5023180;28;20083;-78
2021/08/05 01:32:00;;;;;;;12.80;11.60;;;;;;;;;;5028925;28;20120;-78
2021/08/05 01:34:27;;;;;;;14.63;13.15;;;;;;;;;;5011223;28;20037;-78
2021/08/05 01:36:54;;;;;;;14.27;12.80;;;;;;;;;;5032348;28;20033;-78
2021/08/05 01:39:19;;;;;;;14.82;13.30;;;;;;;;;;5028118;28;20052;-78
2021/08/05 01:41:47;;;;;;;13.32;12.02;;;;;;;;;;5033710;28;20034;-78
2021/08/05 01:44:13;;;;;;;14.32;12.88;;;;;;;;;;5035331;28;20469;-78
2021/08/05 01:46:39;;;;;;;14.95;13.55;;;;;;;;;;5033028;28;20056;-78
2021/08/05 01:49:06;;;;;;;16.17;13.82;;;;;;;;;;5033998;28;20030;-78
2021/08/05 01:51:33;;;;;;;14.95;13.35;;;;;;;;;;5035754;28;20037;-78
2021/08/05 01:54:00;;;;;;;15.18;13.65;;;;;;;;;;5034071;28;20037;-78
2021/08/05 01:56:26;;;;;;;15.70;13.43;;;;;;;;;;5030791;28;20425;-78
2021/08/05 01:58:55;;;;;;;15.77;14.27;;;;;;;;;;5032206;28;20053;-78
2021/08/05 02:01:20;;;;;;;16.23;14.52;;;;;;;;;;5032601;28;20026;-78
2021/08/05 02:04:21;;;;;;;14.20;12.90;;;;;;;;;;5030367;28;20045;-78
2021/08/05 02:06:58;;;;;;;14.52;13.15;;;;;;;;;;5033527;28;20088;-78
2021/08/05 02:09:32;;;;;;;15.63;13.52;;;;;;;;;;5029068;28;20374;-78
2021/08/05 02:11:59;;;;;;;15.60;14.05;;;;;;;;;;5031299;28;20089;-78
2021/08/05 02:14:27;;;;;;;15.23;13.73;;;;;;;;;;5027456;28;20029;-78
2021/08/05 02:16:53;;;;;;;14.80;13.30;;;;;;;;;;5012763;28;20037;-78
2021/08/05 02:19:19;;;;;;;14.77;13.32;;;;;;;;;;5031883;28;20033;-78
2021/08/05 02:21:45;;;;;;;15.48;13.98;;;;;;;;;;5026949;28;20132;-78
2021/08/05 02:24:13;;;;;;;15.10;13.38;;;;;;;;;;5026357;28;20033;-78
2021/08/05 02:26:40;;;;;;;14.35;12.95;;;;;;;;;;5045775;28;20037;-78
2021/08/05 02:29:06;;;;;;;14.23;12.93;;;;;;;;;;5031619;28;20060;-78
2021/08/05 02:31:36;;;;;;;14.88;13.23;;;;;;;;;;5023980;28;20033;-78
2021/08/05 02:34:03;;;;;;;13.85;12.45;;;;;;;;;;5026548;28;20032;-78
2021/08/05 02:36:29;;;;;;;13.48;12.20;;;;;;;;;;5031872;28;20033;-78
2021/08/05 02:38:55;;;;;;;13.40;12.10;;;;;;;;;;5025544;28;20025;-78
2021/08/05 02:41:21;;;;;;;14.13;12.75;;;;;;;;;;5030163;28;20706;-78
2021/08/05 02:43:47;;;;;;;15.10;13.60;;;;;;;;;;5030680;28;20036;-78
2021/08/05 02:46:14;;;;;;;14.63;13.23;;;;;;;;;;5016114;28;20049;-78
2021/08/05 02:48:40;;;;;;;15.45;13.85;;;;;;;;;;5036004;28;20500;-78
2021/08/05 02:51:06;;;;;;;15.70;14.20;;;;;;;;;;5036572;28;20128;-78
2021/08/05 02:53:32;;;;;;;16.23;14.52;;;;;;;;;;5035223;28;20060;-78
2021/08/05 02:55:58;;;;;;;15.32;13.80;;;;;;;;;;5033582;28;20046;-78
2021/08/05 02:58:24;;;;;;;16.10;14.35;;;;;;;;;;5027817;28;20052;-78
2021/08/05 03:00:49;;;;;;;15.52;14.02;;;;;;;;;;5032756;28;20477;-78
2021/08/05 03:03:21;;;;;;;14.15;12.75;;;;;;;;;;5016369;28;20108;-78
2021/08/05 03:05:46;;;;;;;14.50;13.07;;;;;;;;;;5024754;28;20028;-78
2021/08/05 03:08:12;;;;;;;13.35;12.05;;;;;;;;;;5028029;28;20030;-78
2021/08/05 03:10:37;;;;;;;14.70;13.25;;;;;;;;;;5034680;28;20495;-78
2021/08/05 03:13:03;;;;;;;14.77;13.27;;;;;;;;;;5029834;28;20029;-78
2021/08/05 03:15:29;;;;;;;15.52;13.60;;;;;;;;;;5026282;28;20029;-78
2021/08/05 03:17:55;;;;;;;14.68;13.27;;;;;;;;;;5029680;28;20029;-78
2021/08/05 03:20:20;;;;;;;15.02;13.57;;;;;;;;;;5032080;28;20283;-78
2021/08/05 03:22:46;;;;;;;13.75;12.35;;;;;;;;;;5035407;28;20048;-78
2021/08/05 03:25:11;;;;;;;14.93;13.32;;;;;;;;;;5033463;28;21302;-78
2021/08/05 03:27:38;;;;;;;14.63;13.23;;;;;;;;;;5032759;28;20501;-78
2021/08/05 03:30:05;;;;;;;14.27;12.88;;;;;;;;;;5030076;28;20121;-78
2021/08/05 03:32:31;;;;;;;14.05;12.65;;;;;;;;;;5031590;28;20548;-78
2021/08/05 03:34:56;;;;;;;14.25;12.85;;;;;;;;;;5032145;28;20061;-78
2021/08/05 03:37:22;;;;;;;13.85;12.55;;;;;;;;;;5016436;28;20091;-78
2021/08/05 03:39:47;;;;;;;14.00;12.65;;;;;;;;;;5027804;28;20029;-78
2021/08/05 03:42:12;;;;;;;14.38;13.00;;;;;;;;;;5031165;28;20029;-78
2021/08/05 03:44:38;;;;;;;14.07;12.73;;;;;;;;;;5030365;28;20025;-78
2021/08/05 03:47:03;;;;;;;14.07;12.77;;;;;;;;;;5029128;28;20032;-78
2021/08/05 03:49:29;;;;;;;14.48;13.02;;;;;;;;;;5028870;28;20029;-78
2021/08/05 03:51:54;;;;;;;14.52;13.10;;;;;;;;;;5011381;28;20038;-78
2021/08/05 03:54:19;;;;;;;15.23;13.63;;;;;;;;;;5031756;28;20033;-78
2021/08/05 03:56:45;;;;;;;14.75;13.35;;;;;;;;;;5035303;28;20129;-78
2021/08/05 03:59:10;;;;;;;14.57;13.27;;;;;;;;;;5028862;28;20034;-78
2021/08/05 04:01:35;;;;;;;15.50;14.00;;;;;;;;;;5026611;28;20034;-78
2021/08/05 04:04:01;;;;;;;14.73;13.43;;;;;;;;;;5030741;28;20460;-78
2021/08/05 04:06:26;;;;;;;14.57;13.10;;;;;;;;;;5023938;28;20055;-78
2021/08/05 04:08:52;;;;;;;14.63;13.13;;;;;;;;;;5030206;28;20037;-78
2021/08/05 04:11:17;;;;;;;14.85;13.45;;;;;;;;;;5026358;28;20651;-78
2021/08/05 04:13:42;;;;;;;14.00;12.50;;;;;;;;;;5030880;28;20053;-78
2021/08/05 04:16:08;;;;;;;13.77;12.35;;;;;;;;;;5013156;28;20084;-78
2021/08/05 04:18:34;;;;;;;15.32;13.93;;;;;;;;;;5028180;28;20035;-78
2021/08/05 04:20:59;;;;;;;14.45;12.95;;;;;;;;;;5008977;28;20021;-78
2021/08/05 04:23:24;;;;;;;13.93;12.55;;;;;;;;;;5012330;28;20045;-78
2021/08/05 04:25:50;;;;;;;13.32;12.02;;;;;;;;;;5013520;28;20029;-78
2021/08/05 04:28:15;;;;;;;13.90;12.48;;;;;;;;;;5031365;28;20057;-78
2021/08/05 04:30:41;;;;;;;14.20;12.25;;;;;;;;;;5012593;28;20029;-78
2021/08/05 04:33:06;;;;;;;14.43;13.13;;;;;;;;;;5019757;28;20056;-78
2021/08/05 04:35:31;;;;;;;14.25;12.73;;;;;;;;;;5030147;28;20052;-78
2021/08/05 04:37:59;;;;;;;14.30;13.00;;;;;;;;;;5029363;28;20053;-78
2021/08/05 04:40:27;;;;;;;15.07;13.60;;;;;;;;;;5022291;28;20029;-78
2021/08/05 04:42:52;;;;;;;14.80;13.23;;;;;;;;;;5028417;28;20026;-78
2021/08/05 04:45:18;;;;;;;15.90;14.40;;;;;;;;;;5014459;28;20035;-78
2021/08/05 04:47:58;;;;;;;15.70;14.27;;;;;;;;;;5014047;28;20064;-78
2021/08/05 04:50:30;;;;;;;16.20;14.50;;;;;;;;;;5023487;28;20037;-78
2021/08/05 04:52:57;;;;;;;15.35;13.90;;;;;;;;;;5027086;28;20035;-78
2021/08/05 04:55:23;;;;;;;15.38;13.77;;;;;;;;;;5011269;28;20042;-78
2021/08/05 04:58:00;;;;;;;15.55;14.05;;;;;;;;;;5026013;28;20128;-78
2021/08/05 05:00:27;;;;;;;16.27;14.57;;;;;;;;;;5022256;28;20104;-77
2021/08/05 05:02:53;;;;;;;15.60;14.00;;;;;;;;;;5027591;28;20465;-78
2021/08/05 05:05:19;;;;;;;14.88;13.27;;;;;;;;;;5027523;28;20030;-78
2021/08/05 05:07:45;;;;;;;15.05;13.50;;;;;;;;;;5024137;28;20451;-78
2021/08/05 05:10:11;;;;;;;15.57;13.98;;;;;;;;;;5031062;28;20033;-78
2021/08/05 05:12:36;;;;;;;15.52;13.95;;;;;;;;;;5012735;28;20053;-78
2021/08/05 05:15:02;;;;;;;15.93;14.32;;;;;;;;;;5017526;28;20030;-78
2021/08/05 05:17:27;;;;;;;17.58;15.88;;;;;;;;;;5017253;28;20030;-78
2021/08/05 05:19:53;;;;;;;17.88;16.08;;;;;;;;;;5032281;28;20044;-78
2021/08/05 05:22:19;;;;;;;16.45;14.75;;;;;;;;;;5026967;28;20044;-78
2021/08/05 05:24:45;;;;;;;15.63;14.13;;;;;;;;;;5015872;28;20037;-78
2021/08/05 05:27:10;;;;;;;15.68;14.07;;;;;;;;;;5031185;28;20462;-78
2021/08/05 05:29:36;;;;;;;17.52;15.55;;;;;;;;;;5013161;28;20112;-78
2021/08/05 05:32:02;;;;;;;15.07;13.57;;;;;;;;;;5022514;28;20048;-78
2021/08/05 05:34:28;;;;;;;15.15;13.75;;;;;;;;;;5030502;28;20033;-78
2021/08/05 05:36:53;;;;;;;17.02;15.38;;;;;;;;;;5030385;28;20030;-78
2021/08/05 05:39:19;;;;;;;16.90;15.27;;;;;;;;;;5009400;28;20037;-78
2021/08/05 05:41:44;;;;;;;17.30;15.60;;;;;;;;;;5012048;28;20037;-78
2021/08/05 05:44:10;;;;;;;17.25;15.52;;;;;;;;;;5028390;28;20540;-78
2021/08/05 05:46:35;;;;;;;16.95;15.23;;;;;;;;;;5025995;28;20049;-78
2021/08/05 05:49:00;;;;;;;14.88;13.43;;;;;;;;;;5024338;28;20060;-78
2021/08/05 05:51:26;;;;;;;17.38;15.68;;;;;;;;;;5025495;28;20057;-78
2021/08/05 05:53:51;;;;;;;15.35;13.88;;;;;;;;;;5044488;28;20033;-78
2021/08/05 05:56:17;;;;;;;18.90;15.43;;;;;;;;;;5000836;28;20056;-78
2021/08/05 05:58:42;;;;;;;16.27;14.65;;;;;;;;;;5032034;28;20048;-78
2021/08/05 06:01:07;;;;;;;20.20;15.63;;;;;;;;;;5031141;28;20063;-78
2021/08/05 06:03:33;;;;;;;19.45;17.38;;;;;;;;;;5030678;28;20048;-78
2021/08/05 06:05:58;;;;;;;18.55;16.70;;;;;;;;;;5032302;28;20124;-78
2021/08/05 06:08:23;;;;;;;20.48;17.92;;;;;;;;;;5030343;28;20491;-78
2021/08/05 06:10:49;;;;;;;18.23;16.52;;;;;;;;;;5033684;28;20030;-78
2021/08/05 06:13:14;;;;;;;20.55;18.60;;;;;;;;;;5022010;28;20030;-78
2021/08/05 06:15:40;;;;;;;22.40;20.20;;;;;;;;;;5035705;28;20025;-78
2021/08/05 06:18:05;;;;;;;19.75;17.85;;;;;;;;;;5031743;28;20041;-78
2021/08/05 06:20:31;;;;;;;20.40;18.35;;;;;;;;;;5031862;28;20092;-78
2021/08/05 06:22:56;;;;;;;19.85;17.85;;;;;;;;;;5026598;28;20413;-78
2021/08/05 06:25:22;;;;;;;18.90;16.23;;;;;;;;;;5028036;28;20421;-78
2021/08/05 06:27:48;;;;;;;18.52;16.35;;;;;;;;;;5024969;28;20057;-77
2021/08/05 06:30:14;;;;;;;18.83;16.95;;;;;;;;;;5029772;28;20492;-78
2021/08/05 06:32:40;;;;;;;20.77;18.70;;;;;;;;;;5026531;28;20025;-78
2021/08/05 06:35:06;;;;;;;20.75;18.70;;;;;;;;;;5033090;28;20026;-78
2021/08/05 06:37:32;;;;;;;19.67;17.77;;;;;;;;;;5028404;28;20029;-78
2021/08/05 06:39:59;;;;;;;21.85;19.65;;;;;;;;;;5014727;28;20393;-78
2021/08/05 06:42:24;;;;;;;23.42;21.13;;;;;;;;;;5029256;28;20087;-78
2021/08/05 06:44:49;;;;;;;23.85;21.50;;;;;;;;;;5027667;28;20536;-78
2021/08/05 06:47:15;;;;;;;24.73;22.13;;;;;;;;;;5025743;28;20164;-78
2021/08/05 06:49:40;;;;;;;25.90;23.40;;;;;;;;;;5029333;28;20029;-78
2021/08/05 06:52:06;;;;;;;22.48;20.20;;;;;;;;;;5026403;28;20045;-78
2021/08/05 06:54:32;;;;;;;24.83;18.42;;;;;;;;;;5017288;28;20034;-78
2021/08/05 06:56:57;;;;;;;20.77;17.23;;;;;;;;;;5016359;28;20060;-78
2021/08/05 06:59:22;;;;;;;21.33;19.15;;;;;;;;;;5026069;28;20039;-78
2021/08/05 07:01:48;;;;;;;22.67;20.48;;;;;;;;;;5025391;28;20057;-78
2021/08/05 07:04:13;;;;;;;20.83;18.70;;;;;;;;;;5010926;28;20032;-78
2021/08/05 07:06:39;;;;;;;22.98;20.58;;;;;;;;;;5033744;28;20034;-78
2021/08/05 07:09:05;;;;;;;20.27;18.33;;;;;;;;;;5034893;28;20044;-78
2021/08/05 07:11:30;;;;;;;21.42;19.33;;;;;;;;;;5027442;28;20041;-78
2021/08/05 07:13:56;;;;;;;24.50;22.20;;;;;;;;;;5032985;28;20045;-78
2021/08/05 07:16:21;;;;;;;25.65;22.95;;;;;;;;;;5027231;28;20382;-78
2021/08/05 07:18:46;;;;;;;24.95;22.35;;;;;;;;;;5016013;28;20107;-78
2021/08/05 07:21:12;;;;;;;27.25;24.30;;;;;;;;;;5024264;28;20071;-78
2021/08/05 07:23:37;;;;;;;26.48;23.73;;;;;;;;;;5013143;28;20393;-78
2021/08/05 07:26:03;;;;;;;26.98;24.25;;;;;;;;;;5012884;28;20033;-78
2021/08/05 07:28:29;;;;;;;26.25;23.65;;;;;;;;;;5011333;28;20045;-78
2021/08/05 07:30:55;;;;;;;27.58;24.25;;;;;;;;;;5030150;28;20037;-79
2021/08/05 07:33:21;;;;;;;29.77;26.05;;;;;;;;;;5032167;28;20053;-79
2021/08/05 07:35:47;;;;;;;30.60;27.33;;;;;;;;;;5023182;28;20046;-79
2021/08/05 07:38:12;;;;;;;28.48;25.58;;;;;;;;;;5026087;28;20032;-79
2021/08/05 07:40:38;;;;;;;29.42;26.30;;;;;;;;;;5026816;28;20029;-79
2021/08/05 07:43:03;;;;;;;29.13;26.08;;;;;;;;;;5023558;28;20037;-78
2021/08/05 07:45:30;;;;;;;28.35;25.40;;;;;;;;;;5012370;28;20439;-79
2021/08/05 07:47:55;;;;;;;30.33;27.13;;;;;;;;;;5021248;28;20116;-78
2021/08/05 07:50:21;;;;;;;30.55;27.27;;;;;;;;;;5024022;28;20101;-79
2021/08/05 07:52:46;;;;;;;30.88;27.67;;;;;;;;;;5025747;28;20033;-79
2021/08/05 07:55:12;;;;;;;30.05;26.98;;;;;;;;;;5005267;28;20663;-79
2021/08/05 07:57:38;;;;;;;29.02;25.95;;;;;;;;;;5020902;28;20053;-79
2021/08/05 08:00:06;;;;;;;30.10;26.98;;;;;;;;;;5023303;28;20034;-78
2021/08/05 08:02:31;;;;;;;29.73;26.52;;;;;;;;;;5027157;28;20041;-79
2021/08/05 08:04:56;;;;;;;30.27;26.60;;;;;;;;;;5008137;28;20401;-79
2021/08/05 08:07:22;;;;;;;30.25;26.20;;;;;;;;;;5021410;28;20040;-78
2021/08/05 08:09:47;;;;;;;30.02;25.80;;;;;;;;;;5022367;28;20045;-79
2021/08/05 08:12:13;;;;;;;29.23;26.13;;;;;;;;;;5023328;28;20044;-79
2021/08/05 08:14:38;;;;;;;29.52;26.10;;;;;;;;;;5018388;28;20038;-79
2021/08/05 08:17:04;;;;;;;30.80;27.50;;;;;;;;;;5020634;28;20033;-78
2021/08/05 08:19:30;;;;;;;33.22;28.02;;;;;;;;;;5004860;28;20044;-79
2021/08/05 08:21:56;;;;;;;29.30;26.30;;;;;;;;;;5025034;28;20112;-79
2021/08/05 08:24:23;;;;;;;29.55;26.15;;;;;;;;;;5002121;28;20220;-79
2021/08/05 08:26:48;;;;;;;29.55;26.35;;;;;;;;;;5025690;28;20040;-79
2021/08/05 08:29:14;;;;;;;28.40;25.33;;;;;;;;;;5023489;28;20033;-79
2021/08/05 08:31:39;;;;;;;29.92;26.63;;;;;;;;;;5018526;28;20044;-79
2021/08/05 08:34:04;;;;;;;28.23;25.25;;;;;;;;;;5023568;28;20168;-79
2021/08/05 08:36:30;;;;;;;29.63;25.67;;;;;;;;;;5017312;28;20049;-79
2021/08/05 08:38:58;;;;;;;29.23;25.98;;;;;;;;;;5028183;28;20044;-78
2021/08/05 08:41:24;;;;;;;30.58;27.42;;;;;;;;;;5018800;28;20030;-78
2021/08/05 08:43:49;;;;;;;30.27;27.08;;;;;;;;;;5004622;28;20037;-79
2021/08/05 08:46:20;;;;;;;30.00;26.90;;;;;;;;;;5005891;28;20030;-79
2021/08/05 08:48:47;;;;;;;28.52;25.55;;;;;;;;;;5026884;28;20021;-79
2021/08/05 08:51:13;;;;;;;31.23;27.92;;;;;;;;;;5026273;28;20049;-79
2021/08/05 08:53:40;;;;;;;30.25;27.08;;;;;;;;;;5029146;28;20040;-79
2021/08/05 08:56:07;;;;;;;28.02;25.10;;;;;;;;;;5027585;28;20029;-79
2021/08/05 08:58:33;;;;;;;27.52;24.63;;;;;;;;;;5022652;28;20537;-79
2021/08/05 09:00:58;;;;;;;28.85;25.85;;;;;;;;;;5033000;28;20640;-79
2021/08/05 09:03:24;;;;;;;30.30;27.10;;;;;;;;;;5030201;28;20065;-79
2021/08/05 09:05:49;;;;;;;27.48;24.67;;;;;;;;;;5013161;28;20611;-79
2021/08/05 09:08:15;;;;;;;31.30;25.13;;;;;;;;;;5025778;28;20033;-79
2021/08/05 09:10:40;;;;;;;28.60;25.48;;;;;;;;;;5028875;28;20700;-79
2021/08/05 09:13:08;;;;;;;27.55;24.75;;;;;;;;;;5029795;28;20033;-80
2021/08/05 09:15:38;;;;;;;28.45;25.58;;;;;;;;;;5031492;28;20033;-79
2021/08/05 09:18:43;;;;;;;27.33;24.45;;;;;;;;;;5031378;28;20036;-79
2021/08/05 09:21:26;;;;;;;26.45;23.40;;;;;;;;;;5032306;28;20025;-79
2021/08/05 09:23:59;;;;;;;26.23;23.42;;;;;;;;;;5027994;28;20777;-79
2021/08/05 09:26:32;;;;;;;25.85;23.10;;;;;;;;;;5025569;28;20436;-79
2021/08/05 09:29:03;;;;;;;26.42;23.13;;;;;;;;;;5030061;28;20052;-80
2021/08/05 09:31:29;;;;;;;25.48;22.92;;;;;;;;;;5030804;28;20065;-80
2021/08/05 09:33:59;;;;;;;25.10;22.70;;;;;;;;;;5039321;28;20120;-80
2021/08/05 09:36:27;;;;;;;25.42;22.83;;;;;;;;;;5012081;28;20061;-79
2021/08/05 09:38:53;;;;;;;24.92;22.33;;;;;;;;;;5032835;28;20523;-79
2021/08/05 09:41:18;;;;;;;26.58;23.70;;;;;;;;;;5031203;28;20477;-80
2021/08/05 09:43:44;;;;;;;26.98;23.25;;;;;;;;;;5018530;28;20124;-79
2021/08/05 09:46:12;;;;;;;26.30;23.50;;;;;;;;;;5021541;28;20093;-80
2021/08/05 09:48:43;;;;;;;26.90;24.05;;;;;;;;;;5028922;28;20405;-79
2021/08/05 09:51:16;;;;;;;26.60;23.75;;;;;;;;;;5027434;28;20040;-80
2021/08/05 09:54:04;;;;;;;27.05;24.25;;;;;;;;;;5021179;28;20048;-79
2021/08/05 09:56:37;;;;;;;27.55;24.63;;;;;;;;;;5020411;28;20503;-79
2021/08/05 09:59:12;;;;;;;;;;;;;;;;;;5025156;28;20093;-80
2021/08/05 10:02:07;;;;;;;25.83;23.02;;;;;;;;;;5033570;28;19994;-80
2021/08/05 10:04:34;;;;;;;25.73;23.02;;;;;;;;;;5031051;28;20039;-79
2021/08/05 10:07:07;;;;;;;27.15;24.35;;;;;;;;;;5022575;28;20034;-80
2021/08/05 10:09:34;;;;;;;27.45;24.65;;;;;;;;;;5024002;28;20069;-80
2021/08/05 10:12:20;;;;;;;27.13;24.38;;;;;;;;;;5026161;28;20040;-79
2021/08/05 10:14:48;;;;;;;26.00;23.15;;;;;;;;;;5033530;28;20025;-80
2021/08/05 10:17:15;;;;;;;27.00;24.30;;;;;;;;;;5027321;28;20053;-79
2021/08/05 10:19:42;;;;;;;29.90;23.63;;;;;;;;;;5027954;28;20045;-80
2021/08/05 10:22:09;;;;;;;27.67;24.83;;;;;;;;;;5027389;28;20160;-80
2021/08/05 10:24:41;;;;;;;25.63;23.02;;;;;;;;;;5022180;28;20532;-80
2021/08/05 10:27:08;;;;;;;27.73;24.92;;;;;;;;;;5028003;28;20098;-79
2021/08/05 10:29:35;;;;;;;27.80;24.50;;;;;;;;;;5025886;28;20041;-79
2021/08/05 10:32:05;;;;;;;27.13;24.40;;;;;;;;;;5022183;28;20030;-80
2021/08/05 10:34:33;;;;;;;27.08;24.17;;;;;;;;;;5031728;28;20521;-80
2021/08/05 10:37:00;;;;;;;28.73;25.65;;;;;;;;;;5028847;28;20033;-80
2021/08/05 10:39:25;;;;;;;26.50;23.73;;;;;;;;;;5025895;28;20025;-79
2021/08/05 10:41:51;;;;;;;27.50;24.63;;;;;;;;;;5006655;28;20040;-79
2021/08/05 10:44:16;;;;;;;26.48;23.73;;;;;;;;;;5009954;28;20120;-79
2021/08/05 10:46:42;;;;;;;27.35;24.48;;;;;;;;;;5023096;28;20038;-79
2021/08/05 10:49:08;;;;;;;25.88;23.25;;;;;;;;;;5021912;28;20108;-80
2021/08/05 10:51:35;;;;;;;26.55;23.83;;;;;;;;;;5025398;28;20040;-79
2021/08/05 10:54:00;;;;;;;25.30;22.70;;;;;;;;;;5004969;28;20424;-79
2021/08/05 10:56:30;;;;;;;26.67;23.98;;;;;;;;;;5026899;28;20061;-79
2021/08/05 10:59:12;;;;;;;28.63;25.63;;;;;;;;;;5006216;28;20042;-79
2021/08/05 11:01:55;;;;;;;27.48;24.58;;;;;;;;;;5025589;28;20496;-79
2021/08/05 11:04:38;;;;;;;26.90;24.20;;;;;;;;;;5026241;28;20037;-80
2021/08/05 11:07:26;;;;;;;25.65;22.98;;;;;;;;;;5024567;28;20035;-79
2021/08/05 11:10:25;;;;;;;24.27;21.80;;;;;;;;;;5027585;28;20033;-79
2021/08/05 11:13:12;;;;;;;23.75;21.40;;;;;;;;;;5014115;28;20148;-80
2021/08/05 11:15:37;;;;;;;23.67;21.17;;;;;;;;;;5018277;28;20596;-80
2021/08/05 11:18:17;;;;;;;26.20;23.52;;;;;;;;;;5017727;28;20029;-79
2021/08/05 11:20:52;;;;;;;26.67;23.95;;;;;;;;;;5017471;28;20033;-79
2021/08/05 11:23:28;;;;;;;24.88;22.27;;;;;;;;;;5013514;28;20053;-79
2021/08/05 11:25:55;;;;;;;24.67;22.23;;;;;;;;;;5023537;28;20025;-79
2021/08/05 11:28:21;;;;;;;25.05;22.45;;;;;;;;;;5014514;28;20032;-79
2021/08/05 11:30:51;;;;;;;23.75;21.38;;;;;;;;;;5018370;28;20026;-79
2021/08/05 11:33:38;;;;;;;22.52;20.23;;;;;;;;;;5020731;28;20025;-80
2021/08/05 11:36:32;;;;;;;23.98;21.58;;;;;;;;;;5024268;28;20041;-79
2021/08/05 11:39:08;;;;;;;;;;;;;;;;;;5017511;28;20056;-79
2021/08/05 11:41:48;;;;;;;23.63;21.23;;;;;;;;;;5023293;28;20373;-79
2021/08/05 11:44:39;;;;;;;25.80;23.20;;;;;;;;;;5018159;28;20057;-79
2021/08/05 11:47:04;;;;;;;27.83;25.08;;;;;;;;;;5022782;28;20038;-79
2021/08/05 11:49:43;;;;;;;25.42;22.85;;;;;;;;;;5019478;28;20791;-79
2021/08/05 11:52:19;;;;;;;28.73;25.05;;;;;;;;;;5025050;28;20033;-79
2021/08/05 11:54:47;;;;;;;25.85;23.13;;;;;;;;;;5015722;28;20053;-79
2021/08/05 11:57:16;;;;;;;26.13;23.50;;;;;;;;;;5013620;28;20632;-79
2021/08/05 11:59:44;;;;;;;25.85;23.25;;;;;;;;;;4998192;28;20033;-79
2021/08/05 12:02:18;;;;;;;24.40;21.92;;;;;;;;;;5020670;28;20028;-79
2021/08/05 12:04:44;;;;;;;22.65;20.25;;;;;;;;;;5025106;28;20037;-79
2021/08/05 12:07:24;;;;;;;23.98;21.52;;;;;;;;;;5019159;28;20033;-79
2021/08/05 12:10:13;;;;;;;25.27;22.80;;;;;;;;;;5019545;28;20033;-79
2021/08/05 12:12:49;;;;;;;23.42;21.02;;;;;;;;;;5013377;28;20038;-79
2021/08/05 12:15:17;;;;;;;24.10;21.55;;;;;;;;;;5017011;28;20029;-79
2021/08/05 12:17:46;;;;;;;19.63;17.73;;;;;;;;;;5013372;28;20041;-80
2021/08/05 12:20:36;;;;;;;19.30;17.30;;;;;;;;;;5016475;28;20037;-79
2021/08/05 12:23:14;;;;;;;17.60;15.80;;;;;;;;;;5026274;28;20029;-79
2021/08/05 12:26:01;;;;;;;17.33;15.50;;;;;;;;;;5014049;28;20473;-79
2021/08/05 12:28:29;;;;;;;18.80;16.90;;;;;;;;;;5022896;28;20068;-79
2021/08/05 12:30:58;;;;;;;19.27;17.27;;;;;;;;;;5020594;28;20657;-80
2021/08/05 12:33:26;;;;;;;18.88;16.88;;;;;;;;;;5022398;28;20095;-79
2021/08/05 12:36:12;;;;;;;19.38;17.48;;;;;;;;;;5017164;28;20036;-79
2021/08/05 12:38:52;;;;;;;23.48;19.85;;;;;;;;;;5020049;28;20037;-79
2021/08/05 12:41:34;;;;;;;20.92;18.80;;;;;;;;;;5018232;28;20036;-79
2021/08/05 12:44:10;;;;;;;25.35;22.63;;;;;;;;;;5017888;28;20116;-80
2021/08/05 12:46:37;;;;;;;22.15;19.85;;;;;;;;;;5023145;28;20026;-80
2021/08/05 12:49:03;;;;;;;22.95;20.60;;;;;;;;;;5022658;28;20037;-79
2021/08/05 12:51:31;;;;;;;23.67;20.63;;;;;;;;;;5021109;28;20041;-79
2021/08/05 12:54:14;;;;;;;22.70;20.40;;;;;;;;;;5017528;28;20058;-79
2021/08/05 12:56:41;;;;;;;;;;;;;;;;;;5019412;28;20057;-79
2021/08/05 12:59:06;;;;;;;23.50;21.17;;;;;;;;;;5013120;28;19974;-79
2021/08/05 13:01:32;;;;;;;22.85;20.30;;;;;;;;;;5019096;28;20128;-80
2021/08/05 13:03:59;;;;;;;23.20;20.90;;;;;;;;;;5019827;28;20121;-79
2021/08/05 13:06:53;;;;;;;20.80;18.70;;;;;;;;;;5006887;28;20091;-80
2021/08/05 13:09:20;;;;;;;15.43;13.90;;;;;;;;;;5020971;28;20068;-79
2021/08/05 13:11:45;;;;;;;11.73;9.75;;;;;;;;;;5016141;28;20746;-79
2021/08/05 13:14:34;;;;;;;12.32;11.18;;;;;;;;;;5004590;28;20039;-80
2021/08/05 13:17:08;;;;;;;13.70;12.40;;;;;;;;;;5024620;28;20539;-80
2021/08/05 13:19:55;;;;;;;12.75;10.57;;;;;;;;;;5020597;28;20064;-80
2021/08/05 13:22:40;;;;;;;10.38;9.27;;;;;;;;;;5022894;28;20425;-80
2021/08/05 13:25:10;;;;;;;8.98;8.07;;;;;;;;;;5019633;28;20040;-79
2021/08/05 13:27:37;;;;;;;8.52;7.70;;;;;;;;;;5037573;28;20040;-79
2021/08/05 13:30:14;;;;;;;10.05;9.07;;;;;;;;;;5023148;28;20067;-80
2021/08/05 13:32:45;;;;;;;9.95;8.88;;;;;;;;;;5022415;28;20034;-80
2021/08/05 13:35:13;;;;;;;11.98;10.75;;;;;;;;;;5022372;28;20528;-80
2021/08/05 13:37:41;;;;;;;11.07;9.98;;;;;;;;;;5022606;28;20036;-79
2021/08/05 13:40:21;;;;;;;12.68;11.38;;;;;;;;;;5023121;28;20030;-80
2021/08/05 13:42:47;;;;;;;11.80;10.60;;;;;;;;;;5019789;28;20030;-79
2021/08/05 13:45:13;;;;;;;11.35;9.98;;;;;;;;;;5022850;28;20103;-79
2021/08/05 13:47:39;;;;;;;10.52;9.00;;;;;;;;;;5022115;28;20033;-80
2021/08/05 13:50:25;;;;;;;12.77;10.85;;;;;;;;;;5016005;28;20053;-79
2021/08/05 13:52:51;;;;;;;10.63;9.52;;;;;;;;;;5023257;28;20036;-80
2021/08/05 13:55:18;;;;;;;11.23;9.65;;;;;;;;;;5022299;28;20496;-79
2021/08/05 13:57:44;;;;;;;12.98;10.82;;;;;;;;;;5023775;28;20049;-80
2021/08/05 14:00:10;;;;;;;12.75;11.45;;;;;;;;;;5020677;28;20634;-80
2021/08/05 14:02:38;;;;;;;12.93;11.05;;;;;;;;;;5018036;28;20893;-80
2021/08/05 14:05:04;;;;;;;11.93;10.82;;;;;;;;;;5011340;28;20041;-80
2021/08/05 14:07:30;;;;;;;14.10;12.60;;;;;;;;;;5025673;28;20068;-79
2021/08/05 14:09:56;;;;;;;12.18;10.85;;;;;;;;;;5019908;28;20498;-79
2021/08/05 14:12:21;;;;;;;11.70;10.60;;;;;;;;;;5016745;28;20747;-79
2021/08/05 14:14:47;;;;;;;15.27;13.70;;;;;;;;;;5015959;28;20033;-80
2021/08/05 14:17:12;;;;;;;15.13;12.77;;;;;;;;;;5021438;28;20042;-79
2021/08/05 14:19:38;;;;;;;13.02;11.73;;;;;;;;;;5020961;28;20033;-80
2021/08/05 14:22:06;;;;;;;14.93;13.32;;;;;;;;;;5023034;28;20037;-79
2021/08/05 14:24:32;;;;;;;14.50;13.10;;;;;;;;;;5023038;28;20481;-80
2021/08/05 14:26:57;;;;;;;13.95;12.55;;;;;;;;;;5020950;28;20029;-79
2021/08/05 14:29:24;;;;;;;13.90;12.60;;;;;;;;;;5028308;28;20047;-80